Time,TemperatureF,DewpointF,PressureIn,WindDirection,WindDirectionDegrees,WindSpeedMPH,WindSpeedGustMPH,Humidity,HourlyPrecipIn,Conditions,Clouds,dailyrainin,SolarRadiationWatts/m^2,SoftwareType,DateUTC
2013-09-24 00:03:00,78.0,67.0,-100.00,East,86,2.0,6.0,70,0.00,,,0.00,0.000000,,2013-09-24 05:03:00,
2013-09-24 00:13:00,78.0,67.0,-100.00,East,86,2.0,6.0,70,0.00,,,0.00,0.000000,,2013-09-24 05:13:00,
2013-09-24 00:23:00,78.0,67.0,-100.00,East,86,2.0,6.0,70,0.00,,,0.00,0.000000,,2013-09-24 05:23:00,
2013-09-24 00:32:00,77.0,68.0,-100.00,East,80,2.0,5.0,74,0.00,,,0.00,0.000000,,2013-09-24 05:32:00,
2013-09-24 00:53:00,77.0,68.0,-100.00,East,80,2.0,5.0,74,0.00,,,0.00,0.000000,,2013-09-24 05:53:00,
2013-09-24 01:02:00,77.0,68.0,-100.00,East,80,2.0,5.0,74,0.00,,,0.00,0.000000,,2013-09-24 06:02:00,
2013-09-24 01:12:00,77.0,68.0,-100.00,East,80,2.0,5.0,74,0.00,,,0.00,0.000000,,2013-09-24 06:12:00,
2013-09-24 01:22:00,77.0,68.0,-100.00,East,80,2.0,5.0,74,0.00,,,0.00,0.000000,,2013-09-24 06:22:00,
2013-09-24 01:32:00,76.0,69.0,-100.00,NE,50,2.0,4.0,80,0.00,,,0.00,0.000000,,2013-09-24 06:32:00,
2013-09-24 01:52:00,76.0,69.0,-100.00,NE,50,2.0,4.0,80,0.00,,,0.00,0.000000,,2013-09-24 06:52:00,
2013-09-24 02:03:00,76.0,69.0,-100.00,NE,50,2.0,4.0,80,0.00,,,0.00,0.000000,,2013-09-24 07:03:00,
2013-09-24 02:12:00,76.0,69.0,-100.00,NE,50,2.0,4.0,80,0.00,,,0.00,0.000000,,2013-09-24 07:12:00,
2013-09-24 02:22:00,76.0,69.0,-100.00,NE,50,2.0,4.0,80,0.00,,,0.00,0.000000,,2013-09-24 07:22:00,
2013-09-24 02:32:00,75.0,70.0,-100.00,NE,39,2.0,3.0,84,0.00,,,0.00,0.000000,,2013-09-24 07:32:00,
2013-09-24 02:52:00,75.0,70.0,-100.00,NE,39,2.0,3.0,84,0.00,,,0.00,0.000000,,2013-09-24 07:52:00,
2013-09-24 03:02:00,75.0,70.0,-100.00,NE,39,2.0,3.0,84,0.00,,,0.00,0.000000,,2013-09-24 08:02:00,
2013-09-24 03:11:00,75.0,70.0,-100.00,NE,39,2.0,3.0,84,0.00,,,0.00,0.000000,,2013-09-24 08:11:00,
2013-09-24 03:22:00,75.0,70.0,-100.00,NE,39,2.0,3.0,84,0.00,,,0.00,0.000000,,2013-09-24 08:22:00,
2013-09-24 03:32:00,74.0,70.0,-100.00,ENE,66,2.0,4.0,88,0.00,,,0.00,0.000000,,2013-09-24 08:32:00,
2013-09-24 03:52:00,74.0,70.0,-100.00,ENE,66,2.0,4.0,88,0.00,,,0.00,0.000000,,2013-09-24 08:52:00,
2013-09-24 04:02:00,74.0,70.0,-100.00,ENE,66,2.0,4.0,88,0.00,,,0.00,0.000000,,2013-09-24 09:02:00,
2013-09-24 04:12:00,74.0,70.0,-100.00,ENE,66,2.0,4.0,88,0.00,,,0.00,0.000000,,2013-09-24 09:12:00,
2013-09-24 04:21:00,74.0,70.0,-100.00,ENE,66,2.0,4.0,88,0.00,,,0.00,0.000000,,2013-09-24 09:21:00,
2013-09-24 04:32:00,75.0,72.0,-100.00,NW,312,0.0,3.0,89,0.00,,,0.00,0.000000,,2013-09-24 09:32:00,
2013-09-24 04:54:00,75.0,72.0,-100.00,NW,312,0.0,3.0,89,0.00,,,0.00,0.000000,,2013-09-24 09:54:00,
2013-09-24 05:03:00,75.0,72.0,-100.00,NW,312,0.0,3.0,89,0.00,,,0.00,0.000000,,2013-09-24 10:03:00,
2013-09-24 05:13:00,75.0,72.0,-100.00,NW,312,0.0,3.0,89,0.00,,,0.00,0.000000,,2013-09-24 10:13:00,
2013-09-24 05:23:00,75.0,72.0,-100.00,NW,312,0.0,3.0,89,0.00,,,0.00,0.000000,,2013-09-24 10:23:00,
2013-09-24 05:32:00,75.0,71.0,-100.00,NNW,334,0.0,1.0,88,0.00,,,0.00,0.000000,,2013-09-24 10:32:00,
2013-09-24 05:53:00,75.0,71.0,-100.00,NNW,334,0.0,1.0,88,0.00,,,0.00,0.000000,,2013-09-24 10:53:00,
2013-09-24 06:03:00,75.0,71.0,-100.00,NNW,334,0.0,1.0,88,0.00,,,0.00,0.000000,,2013-09-24 11:03:00,
2013-09-24 06:11:00,75.0,71.0,-100.00,NNW,334,0.0,1.0,88,0.00,,,0.00,0.000000,,2013-09-24 11:11:00,
2013-09-24 06:22:00,75.0,71.0,-100.00,NNW,334,0.0,1.0,88,0.00,,,0.00,0.000000,,2013-09-24 11:22:00,
2013-09-24 06:32:00,75.0,71.0,-100.00,WNW,288,0.0,2.0,88,0.00,,,0.00,0.000000,,2013-09-24 11:32:00,
2013-09-24 06:52:00,75.0,71.0,-100.00,WNW,288,0.0,2.0,88,0.00,,,0.00,0.000000,,2013-09-24 11:52:00,
2013-09-24 07:01:00,75.0,71.0,-100.00,WNW,288,0.0,2.0,88,0.00,,,0.00,0.000000,,2013-09-24 12:01:00,
2013-09-24 07:12:00,75.0,71.0,-100.00,WNW,288,0.0,2.0,88,0.00,,,0.00,0.000000,,2013-09-24 12:12:00,
2013-09-24 07:22:00,75.0,71.0,-100.00,WNW,288,0.0,2.0,88,0.00,,,0.00,0.000000,,2013-09-24 12:22:00,
2013-09-24 07:32:00,75.0,72.0,-100.00,North,3,1.0,3.0,89,0.00,,,0.00,1.000000,,2013-09-24 12:32:00,
2013-09-24 07:52:00,75.0,72.0,-100.00,North,3,1.0,3.0,89,0.00,,,0.00,1.000000,,2013-09-24 12:52:00,
2013-09-24 08:02:00,75.0,72.0,-100.00,North,3,1.0,3.0,89,0.00,,,0.00,1.000000,,2013-09-24 13:02:00,
2013-09-24 08:11:00,75.0,72.0,-100.00,North,3,1.0,3.0,89,0.00,,,0.00,1.000000,,2013-09-24 13:11:00,
2013-09-24 08:22:00,75.0,72.0,-100.00,North,3,1.0,3.0,89,0.00,,,0.00,1.000000,,2013-09-24 13:22:00,
2013-09-24 08:32:00,76.0,73.0,-100.00,SE,143,4.0,6.0,90,0.77,,,0.77,10.000000,,2013-09-24 13:32:00,
2013-09-24 08:52:00,76.0,73.0,-100.00,SE,143,4.0,6.0,90,0.77,,,0.77,10.000000,,2013-09-24 13:52:00,
2013-09-24 09:02:00,76.0,73.0,-100.00,SE,143,4.0,6.0,90,0.77,,,0.77,10.000000,,2013-09-24 14:02:00,
2013-09-24 09:12:00,76.0,73.0,-100.00,SE,143,4.0,6.0,90,0.77,,,0.77,10.000000,,2013-09-24 14:12:00,
2013-09-24 09:21:00,76.0,73.0,-100.00,SE,143,4.0,6.0,90,0.77,,,0.77,10.000000,,2013-09-24 14:21:00,
2013-09-24 09:32:00,76.0,73.0,-100.00,NE,34,0.0,4.0,91,0.01,,,0.78,32.000000,,2013-09-24 14:32:00,
2013-09-24 09:52:00,76.0,73.0,-100.00,NE,34,0.0,4.0,91,0.01,,,0.78,32.000000,,2013-09-24 14:52:00,
2013-09-24 10:01:00,76.0,73.0,-100.00,NE,34,0.0,4.0,91,0.01,,,0.78,32.000000,,2013-09-24 15:01:00,
2013-09-24 10:11:00,76.0,73.0,-100.00,NE,34,0.0,4.0,91,0.01,,,0.78,32.000000,,2013-09-24 15:11:00,
2013-09-24 10:22:00,76.0,73.0,-100.00,NE,34,0.0,4.0,91,0.01,,,0.78,32.000000,,2013-09-24 15:22:00,
2013-09-24 10:32:00,76.0,73.0,-100.00,NW,313,2.0,6.0,90,0.17,,,0.95,122.000000,,2013-09-24 15:32:00,
2013-09-24 10:54:00,76.0,73.0,-100.00,NW,313,2.0,6.0,90,0.17,,,0.95,122.000000,,2013-09-24 15:54:00,
2013-09-24 11:03:00,76.0,73.0,-100.00,NW,313,2.0,6.0,90,0.17,,,0.95,122.000000,,2013-09-24 16:03:00,
2013-09-24 11:13:00,76.0,73.0,-100.00,NW,313,2.0,6.0,90,0.17,,,0.95,122.000000,,2013-09-24 16:13:00,
2013-09-24 11:23:00,76.0,73.0,-100.00,NW,313,2.0,6.0,90,0.17,,,0.95,122.000000,,2013-09-24 16:23:00,
2013-09-24 11:32:00,77.0,74.0,-100.00,NNE,24,1.0,6.0,89,0.12,,,1.07,147.000000,,2013-09-24 16:32:00,
2013-09-24 11:53:00,77.0,74.0,-100.00,NNE,24,1.0,6.0,89,0.12,,,1.07,147.000000,,2013-09-24 16:53:00,
2013-09-24 12:02:00,77.0,74.0,-100.00,NNE,24,1.0,6.0,89,0.12,,,1.07,147.000000,,2013-09-24 17:02:00,
2013-09-24 12:13:00,77.0,74.0,-100.00,NNE,24,1.0,6.0,89,0.12,,,1.07,147.000000,,2013-09-24 17:13:00,
2013-09-24 12:23:00,77.0,74.0,-100.00,NNE,24,1.0,6.0,89,0.12,,,1.07,147.000000,,2013-09-24 17:23:00,
2013-09-24 12:32:00,84.0,74.0,-100.00,North,0,3.0,7.0,72,0.00,,,1.07,614.000000,,2013-09-24 17:32:00,
2013-09-24 12:54:00,84.0,74.0,-100.00,North,0,3.0,7.0,72,0.00,,,1.07,614.000000,,2013-09-24 17:54:00,
2013-09-24 13:03:00,84.0,74.0,-100.00,North,0,3.0,7.0,72,0.00,,,1.07,614.000000,,2013-09-24 18:03:00,
2013-09-24 13:12:00,84.0,74.0,-100.00,North,0,3.0,7.0,72,0.00,,,1.07,614.000000,,2013-09-24 18:12:00,
2013-09-24 13:22:00,84.0,74.0,-100.00,North,0,3.0,7.0,72,0.00,,,1.07,614.000000,,2013-09-24 18:22:00,
2013-09-24 13:32:00,84.0,73.0,-100.00,North,356,2.0,8.0,70,0.00,,,1.07,279.000000,,2013-09-24 18:32:00,
2013-09-24 13:52:00,84.0,73.0,-100.00,North,356,2.0,8.0,70,0.00,,,1.07,279.000000,,2013-09-24 18:52:00,
2013-09-24 14:02:00,84.0,73.0,-100.00,North,356,2.0,8.0,70,0.00,,,1.07,279.000000,,2013-09-24 19:02:00,
2013-09-24 14:11:00,84.0,73.0,-100.00,North,356,2.0,8.0,70,0.00,,,1.07,279.000000,,2013-09-24 19:11:00,
2013-09-24 14:22:00,84.0,73.0,-100.00,North,356,2.0,8.0,70,0.00,,,1.07,279.000000,,2013-09-24 19:22:00,
2013-09-24 14:32:00,86.0,70.0,-100.00,NE,53,4.0,7.0,60,0.00,,,1.07,498.000000,,2013-09-24 19:32:00,
2013-09-24 14:52:00,86.0,70.0,-100.00,NE,53,4.0,7.0,60,0.00,,,1.07,498.000000,,2013-09-24 19:52:00,
2013-09-24 15:02:00,86.0,70.0,-100.00,NE,53,4.0,7.0,60,0.00,,,1.07,498.000000,,2013-09-24 20:02:00,
2013-09-24 15:11:00,86.0,70.0,-100.00,NE,53,4.0,7.0,60,0.00,,,1.07,498.000000,,2013-09-24 20:11:00,
2013-09-24 15:22:00,86.0,70.0,-100.00,NE,53,4.0,7.0,60,0.00,,,1.07,498.000000,,2013-09-24 20:22:00,
2013-09-24 15:32:00,85.0,68.0,-100.00,NE,40,3.0,8.0,56,0.00,,,1.07,310.000000,,2013-09-24 20:32:00,
2013-09-24 15:52:00,85.0,68.0,-100.00,NE,40,3.0,8.0,56,0.00,,,1.07,310.000000,,2013-09-24 20:52:00,
2013-09-24 16:02:00,85.0,68.0,-100.00,NE,40,3.0,8.0,56,0.00,,,1.07,310.000000,,2013-09-24 21:02:00,
2013-09-24 16:12:00,85.0,68.0,-100.00,NE,40,3.0,8.0,56,0.00,,,1.07,310.000000,,2013-09-24 21:12:00,
2013-09-24 16:22:00,85.0,68.0,-100.00,NE,40,3.0,8.0,56,0.00,,,1.07,310.000000,,2013-09-24 21:22:00,
2013-09-24 16:32:00,88.0,66.0,-100.00,NNE,22,3.0,9.0,49,0.00,,,1.07,508.000000,,2013-09-24 21:32:00,
2013-09-24 16:54:00,88.0,66.0,-100.00,NNE,22,3.0,9.0,49,0.00,,,1.07,508.000000,,2013-09-24 21:54:00,
2013-09-24 17:04:00,88.0,66.0,-100.00,NNE,22,3.0,9.0,49,0.00,,,1.07,508.000000,,2013-09-24 22:04:00,
2013-09-24 17:13:00,88.0,66.0,-100.00,NNE,22,3.0,9.0,49,0.00,,,1.07,508.000000,,2013-09-24 22:13:00,
2013-09-24 17:23:00,88.0,66.0,-100.00,NNE,22,3.0,9.0,49,0.00,,,1.07,508.000000,,2013-09-24 22:23:00,
2013-09-24 17:32:00,87.0,66.0,-100.00,NE,48,3.0,6.0,50,0.00,,,1.07,333.000000,,2013-09-24 22:32:00,
2013-09-24 17:54:00,87.0,66.0,-100.00,NE,48,3.0,6.0,50,0.00,,,1.07,333.000000,,2013-09-24 22:54:00,
2013-09-24 18:03:00,87.0,66.0,-100.00,NE,48,3.0,6.0,50,0.00,,,1.07,333.000000,,2013-09-24 23:03:00,
2013-09-24 18:13:00,87.0,66.0,-100.00,NE,48,3.0,6.0,50,0.00,,,1.07,333.000000,,2013-09-24 23:13:00,
2013-09-24 18:22:00,87.0,66.0,-100.00,NE,48,3.0,6.0,50,0.00,,,1.07,333.000000,,2013-09-24 23:22:00,
2013-09-24 18:32:00,84.0,69.0,-100.00,NNW,340,0.0,5.0,61,0.00,,,-99.99,149.000000,,2013-09-24 23:32:00,
2013-09-24 18:53:00,84.0,69.0,-100.00,NNW,340,0.0,5.0,61,0.00,,,-99.99,149.000000,,2013-09-24 23:53:00,
2013-09-24 19:02:00,84.0,69.0,-100.00,NNW,340,0.0,5.0,61,0.00,,,-99.99,149.000000,,2013-09-25 00:02:00,
2013-09-24 19:12:00,84.0,69.0,-100.00,NNW,340,0.0,5.0,61,0.00,,,-99.99,149.000000,,2013-09-25 00:12:00,
2013-09-24 19:22:00,84.0,69.0,-100.00,NNW,340,0.0,5.0,61,0.00,,,-99.99,149.000000,,2013-09-25 00:22:00,
2013-09-24 19:32:00,76.0,66.0,-100.00,WSW,250,0.0,2.0,71,0.00,,,1.07,13.000000,,2013-09-25 00:32:00,
2013-09-24 19:52:00,76.0,66.0,-100.00,WSW,250,0.0,2.0,71,0.00,,,1.07,13.000000,,2013-09-25 00:52:00,
2013-09-24 20:02:00,76.0,66.0,-100.00,WSW,250,0.0,2.0,71,0.00,,,1.07,13.000000,,2013-09-25 01:02:00,
2013-09-24 20:12:00,76.0,66.0,-100.00,WSW,250,0.0,2.0,71,0.00,,,1.07,13.000000,,2013-09-25 01:12:00,
2013-09-24 20:21:00,76.0,66.0,-100.00,WSW,250,0.0,2.0,71,0.00,,,1.07,13.000000,,2013-09-25 01:21:00,
2013-09-24 20:32:00,72.0,68.0,-100.00,ESE,114,0.0,0.0,88,0.00,,,1.07,0.000000,,2013-09-25 01:32:00,
2013-09-24 20:52:00,72.0,68.0,-100.00,ESE,114,0.0,0.0,88,0.00,,,1.07,0.000000,,2013-09-25 01:52:00,
2013-09-24 21:02:00,72.0,68.0,-100.00,ESE,114,0.0,0.0,88,0.00,,,1.07,0.000000,,2013-09-25 02:02:00,
2013-09-24 21:12:00,72.0,68.0,-100.00,ESE,114,0.0,0.0,88,0.00,,,1.07,0.000000,,2013-09-25 02:12:00,
2013-09-24 21:22:00,72.0,68.0,-100.00,ESE,114,0.0,0.0,88,0.00,,,1.07,0.000000,,2013-09-25 02:22:00,
2013-09-24 21:32:00,70.0,67.0,-100.00,West,272,0.0,0.0,89,0.00,,,1.07,0.000000,,2013-09-25 02:32:00,
2013-09-24 21:52:00,70.0,67.0,-100.00,West,272,0.0,0.0,89,0.00,,,1.07,0.000000,,2013-09-25 02:52:00,
2013-09-24 22:02:00,70.0,67.0,-100.00,West,272,0.0,0.0,89,0.00,,,1.07,0.000000,,2013-09-25 03:02:00,
2013-09-24 22:11:00,70.0,67.0,-100.00,West,272,0.0,0.0,89,0.00,,,1.07,0.000000,,2013-09-25 03:11:00,
2013-09-24 22:23:00,70.0,67.0,-100.00,West,272,0.0,0.0,89,0.00,,,1.07,0.000000,,2013-09-25 03:23:00,
2013-09-24 22:32:00,69.0,66.0,-100.00,WSW,243,0.0,0.0,90,0.00,,,1.07,0.000000,,2013-09-25 03:32:00,
2013-09-24 22:55:00,69.0,66.0,-100.00,WSW,243,0.0,0.0,90,0.00,,,1.07,0.000000,,2013-09-25 03:55:00,
2013-09-24 23:04:00,69.0,66.0,-100.00,WSW,243,0.0,0.0,90,0.00,,,1.07,0.000000,,2013-09-25 04:04:00,
2013-09-24 23:14:00,69.0,66.0,-100.00,WSW,243,0.0,0.0,90,0.00,,,1.07,0.000000,,2013-09-25 04:14:00,
2013-09-24 23:24:00,69.0,66.0,-100.00,WSW,243,0.0,0.0,90,0.00,,,1.07,0.000000,,2013-09-25 04:24:00,
2013-09-24 23:32:00,67.0,64.0,-100.00,West,274,0.0,0.0,90,0.00,,,1.07,0.000000,,2013-09-25 04:32:00,
2013-09-24 23:54:00,67.0,64.0,-100.00,West,274,0.0,0.0,90,0.00,,,1.07,0.000000,,2013-09-25 04:54:00,